sensor_id;sensor_type;location;lat;lon;timestamp;P1;durP1;ratioP1;P2;durP2;ratioP2
66179;SDS011;52986;44.028;20.466;2022-11-03T00:01:50;76.45;;;26.50;;
66179;SDS011;52986;44.028;20.466;2022-11-03T00:04:17;83.38;;;27.70;;
66179;SDS011;52986;44.028;20.466;2022-11-03T00:06:44;78.40;;;26.70;;
66179;SDS011;52986;44.028;20.466;2022-11-03T00:09:12;77.15;;;26.67;;
66179;SDS011;52986;44.028;20.466;2022-11-03T00:11:39;76.13;;;26.80;;
66179;SDS011;52986;44.028;20.466;2022-11-03T00:14:06;78.65;;;26.50;;
66179;SDS011;52986;44.028;20.466;2022-11-03T00:16:33;83.18;;;28.00;;
66179;SDS011;52986;44.028;20.466;2022-11-03T00:18:58;78.82;;;27.73;;
66179;SDS011;52986;44.028;20.466;2022-11-03T00:21:24;79.72;;;27.17;;
66179;SDS011;52986;44.028;20.466;2022-11-03T00:23:49;70.38;;;24.65;;
66179;SDS011;52986;44.028;20.466;2022-11-03T00:26:16;67.32;;;24.15;;
66179;SDS011;52986;44.028;20.466;2022-11-03T00:28:45;65.72;;;24.40;;
66179;SDS011;52986;44.028;20.466;2022-11-03T00:31:13;77.10;;;26.45;;
66179;SDS011;52986;44.028;20.466;2022-11-03T00:33:49;78.32;;;27.13;;
66179;SDS011;52986;44.028;20.466;2022-11-03T00:36:16;79.68;;;27.17;;
66179;SDS011;52986;44.028;20.466;2022-11-03T00:38:44;89.50;;;27.58;;
66179;SDS011;52986;44.028;20.466;2022-11-03T00:41:09;83.53;;;27.20;;
66179;SDS011;52986;44.028;20.466;2022-11-03T00:43:36;76.60;;;25.98;;
66179;SDS011;52986;44.028;20.466;2022-11-03T00:46:02;81.47;;;26.02;;
66179;SDS011;52986;44.028;20.466;2022-11-03T00:48:32;81.45;;;26.67;;
66179;SDS011;52986;44.028;20.466;2022-11-03T00:51:08;88.07;;;28.58;;
66179;SDS011;52986;44.028;20.466;2022-11-03T00:53:49;78.43;;;26.48;;
66179;SDS011;52986;44.028;20.466;2022-11-03T00:56:20;77.40;;;26.20;;
66179;SDS011;52986;44.028;20.466;2022-11-03T00:58:47;80.55;;;26.13;;
66179;SDS011;52986;44.028;20.466;2022-11-03T01:01:20;85.90;;;26.10;;
66179;SDS011;52986;44.028;20.466;2022-11-03T01:03:48;75.75;;;25.98;;
66179;SDS011;52986;44.028;20.466;2022-11-03T01:06:34;82.03;;;25.25;;
66179;SDS011;52986;44.028;20.466;2022-11-03T01:11:58;71.43;;;25.17;;
66179;SDS011;52986;44.028;20.466;2022-11-03T01:17:01;80.80;;;25.20;;
66179;SDS011;52986;44.028;20.466;2022-11-03T01:19:30;73.95;;;24.70;;
66179;SDS011;52986;44.028;20.466;2022-11-03T01:21:55;66.07;;;22.50;;
66179;SDS011;52986;44.028;20.466;2022-11-03T01:24:21;67.80;;;22.38;;
66179;SDS011;52986;44.028;20.466;2022-11-03T01:26:47;67.50;;;23.60;;
66179;SDS011;52986;44.028;20.466;2022-11-03T01:29:12;68.63;;;22.58;;
66179;SDS011;52986;44.028;20.466;2022-11-03T01:31:38;70.10;;;23.02;;
66179;SDS011;52986;44.028;20.466;2022-11-03T01:34:03;73.38;;;23.20;;
66179;SDS011;52986;44.028;20.466;2022-11-03T01:36:29;61.17;;;22.70;;
66179;SDS011;52986;44.028;20.466;2022-11-03T01:38:55;51.30;;;19.80;;
66179;SDS011;52986;44.028;20.466;2022-11-03T01:41:22;39.83;;;17.75;;
66179;SDS011;52986;44.028;20.466;2022-11-03T01:43:50;42.10;;;17.30;;
66179;SDS011;52986;44.028;20.466;2022-11-03T01:49:18;42.55;;;17.42;;
66179;SDS011;52986;44.028;20.466;2022-11-03T01:51:48;45.63;;;19.30;;
66179;SDS011;52986;44.028;20.466;2022-11-03T01:54:18;46.42;;;18.77;;
66179;SDS011;52986;44.028;20.466;2022-11-03T01:56:47;41.70;;;17.58;;
66179;SDS011;52986;44.028;20.466;2022-11-03T01:59:15;45.65;;;18.30;;
66179;SDS011;52986;44.028;20.466;2022-11-03T02:01:42;45.58;;;17.88;;
66179;SDS011;52986;44.028;20.466;2022-11-03T02:04:20;41.17;;;17.52;;
66179;SDS011;52986;44.028;20.466;2022-11-03T02:06:49;44.00;;;17.60;;
66179;SDS011;52986;44.028;20.466;2022-11-03T02:09:19;41.83;;;17.40;;
66179;SDS011;52986;44.028;20.466;2022-11-03T02:11:44;41.88;;;17.80;;
66179;SDS011;52986;44.028;20.466;2022-11-03T02:14:28;41.22;;;17.70;;
66179;SDS011;52986;44.028;20.466;2022-11-03T02:16:54;45.45;;;17.23;;
66179;SDS011;52986;44.028;20.466;2022-11-03T02:19:37;44.65;;;17.48;;
66179;SDS011;52986;44.028;20.466;2022-11-03T02:22:29;46.25;;;17.27;;
66179;SDS011;52986;44.028;20.466;2022-11-03T02:27:59;48.95;;;17.40;;
66179;SDS011;52986;44.028;20.466;2022-11-03T02:30:37;45.33;;;16.80;;
66179;SDS011;52986;44.028;20.466;2022-11-03T02:35:56;46.38;;;17.45;;
66179;SDS011;52986;44.028;20.466;2022-11-03T02:38:27;48.22;;;18.05;;
66179;SDS011;52986;44.028;20.466;2022-11-03T02:40:54;44.85;;;17.25;;
66179;SDS011;52986;44.028;20.466;2022-11-03T02:43:24;46.38;;;18.13;;
66179;SDS011;52986;44.028;20.466;2022-11-03T02:45:50;47.35;;;17.75;;
66179;SDS011;52986;44.028;20.466;2022-11-03T02:48:17;44.47;;;17.60;;
66179;SDS011;52986;44.028;20.466;2022-11-03T02:50:43;59.22;;;19.05;;
66179;SDS011;52986;44.028;20.466;2022-11-03T02:53:12;45.47;;;18.13;;
66179;SDS011;52986;44.028;20.466;2022-11-03T02:55:39;46.97;;;18.15;;
66179;SDS011;52986;44.028;20.466;2022-11-03T03:01:02;48.10;;;17.55;;
66179;SDS011;52986;44.028;20.466;2022-11-03T03:03:36;52.97;;;19.33;;
66179;SDS011;52986;44.028;20.466;2022-11-03T03:06:08;45.72;;;18.17;;
66179;SDS011;52986;44.028;20.466;2022-11-03T03:08:39;50.55;;;18.33;;
66179;SDS011;52986;44.028;20.466;2022-11-03T03:11:09;48.50;;;18.65;;
66179;SDS011;52986;44.028;20.466;2022-11-03T03:13:37;48.22;;;18.10;;
66179;SDS011;52986;44.028;20.466;2022-11-03T03:16:11;49.28;;;18.80;;
66179;SDS011;52986;44.028;20.466;2022-11-03T03:21:22;45.83;;;17.95;;
66179;SDS011;52986;44.028;20.466;2022-11-03T03:24:04;47.70;;;18.08;;
66179;SDS011;52986;44.028;20.466;2022-11-03T03:26:43;47.25;;;18.63;;
66179;SDS011;52986;44.028;20.466;2022-11-03T03:29:21;46.83;;;18.45;;
66179;SDS011;52986;44.028;20.466;2022-11-03T03:31:53;52.33;;;19.02;;
66179;SDS011;52986;44.028;20.466;2022-11-03T03:34:21;49.58;;;19.02;;
66179;SDS011;52986;44.028;20.466;2022-11-03T03:36:50;49.17;;;18.15;;
66179;SDS011;52986;44.028;20.466;2022-11-03T03:39:20;49.58;;;18.67;;
66179;SDS011;52986;44.028;20.466;2022-11-03T03:41:49;48.67;;;19.02;;
66179;SDS011;52986;44.028;20.466;2022-11-03T03:44:15;51.28;;;19.38;;
66179;SDS011;52986;44.028;20.466;2022-11-03T03:46:43;47.20;;;18.60;;
66179;SDS011;52986;44.028;20.466;2022-11-03T03:49:13;44.00;;;16.35;;
66179;SDS011;52986;44.028;20.466;2022-11-03T03:51:38;45.25;;;17.23;;
66179;SDS011;52986;44.028;20.466;2022-11-03T03:54:05;44.30;;;17.38;;
66179;SDS011;52986;44.028;20.466;2022-11-03T03:56:41;49.05;;;17.50;;
66179;SDS011;52986;44.028;20.466;2022-11-03T03:59:12;46.33;;;17.73;;
66179;SDS011;52986;44.028;20.466;2022-11-03T04:01:37;45.72;;;16.95;;
66179;SDS011;52986;44.028;20.466;2022-11-03T04:04:03;50.78;;;18.95;;
66179;SDS011;52986;44.028;20.466;2022-11-03T04:06:28;50.95;;;17.50;;
66179;SDS011;52986;44.028;20.466;2022-11-03T04:08:53;50.63;;;17.20;;
66179;SDS011;52986;44.028;20.466;2022-11-03T04:11:19;50.08;;;18.17;;
66179;SDS011;52986;44.028;20.466;2022-11-03T04:14:03;48.92;;;17.20;;
66179;SDS011;52986;44.028;20.466;2022-11-03T04:16:47;52.88;;;18.58;;
66179;SDS011;52986;44.028;20.466;2022-11-03T04:19:31;51.30;;;19.10;;
66179;SDS011;52986;44.028;20.466;2022-11-03T04:22:15;48.00;;;18.67;;
66179;SDS011;52986;44.028;20.466;2022-11-03T04:24:41;55.72;;;20.17;;
66179;SDS011;52986;44.028;20.466;2022-11-03T04:27:32;57.42;;;20.40;;
66179;SDS011;52986;44.028;20.466;2022-11-03T04:32:30;52.40;;;18.30;;
66179;SDS011;52986;44.028;20.466;2022-11-03T04:34:56;49.67;;;18.80;;
66179;SDS011;52986;44.028;20.466;2022-11-03T04:37:24;47.03;;;17.98;;
66179;SDS011;52986;44.028;20.466;2022-11-03T04:39:54;47.70;;;17.83;;
66179;SDS011;52986;44.028;20.466;2022-11-03T04:42:22;51.08;;;18.73;;
66179;SDS011;52986;44.028;20.466;2022-11-03T04:44:48;54.10;;;18.93;;
66179;SDS011;52986;44.028;20.466;2022-11-03T04:47:15;53.20;;;19.00;;
66179;SDS011;52986;44.028;20.466;2022-11-03T04:49:41;53.78;;;18.63;;
66179;SDS011;52986;44.028;20.466;2022-11-03T04:52:15;55.75;;;18.80;;
66179;SDS011;52986;44.028;20.466;2022-11-03T04:54:43;56.58;;;20.42;;
66179;SDS011;52986;44.028;20.466;2022-11-03T04:57:11;55.45;;;19.42;;
66179;SDS011;52986;44.028;20.466;2022-11-03T04:59:39;48.60;;;19.10;;
66179;SDS011;52986;44.028;20.466;2022-11-03T05:02:09;46.67;;;18.02;;
66179;SDS011;52986;44.028;20.466;2022-11-03T05:04:37;51.53;;;17.85;;
66179;SDS011;52986;44.028;20.466;2022-11-03T05:07:04;40.37;;;16.23;;
66179;SDS011;52986;44.028;20.466;2022-11-03T05:09:56;44.63;;;16.65;;
66179;SDS011;52986;44.028;20.466;2022-11-03T05:12:21;39.83;;;15.65;;
66179;SDS011;52986;44.028;20.466;2022-11-03T05:14:47;40.05;;;15.75;;
66179;SDS011;52986;44.028;20.466;2022-11-03T05:17:17;42.45;;;15.88;;
66179;SDS011;52986;44.028;20.466;2022-11-03T05:19:47;46.83;;;15.88;;
66179;SDS011;52986;44.028;20.466;2022-11-03T05:22:25;51.83;;;16.27;;
66179;SDS011;52986;44.028;20.466;2022-11-03T05:24:56;44.15;;;16.38;;
66179;SDS011;52986;44.028;20.466;2022-11-03T05:27:25;46.85;;;16.52;;
66179;SDS011;52986;44.028;20.466;2022-11-03T05:29:51;44.42;;;15.98;;
66179;SDS011;52986;44.028;20.466;2022-11-03T05:32:20;42.60;;;15.98;;
66179;SDS011;52986;44.028;20.466;2022-11-03T05:34:50;51.78;;;16.88;;
66179;SDS011;52986;44.028;20.466;2022-11-03T05:39:48;43.33;;;15.77;;
66179;SDS011;52986;44.028;20.466;2022-11-03T05:44:46;42.38;;;14.70;;
66179;SDS011;52986;44.028;20.466;2022-11-03T05:47:13;44.08;;;15.57;;
66179;SDS011;52986;44.028;20.466;2022-11-03T05:49:44;48.35;;;15.82;;
66179;SDS011;52986;44.028;20.466;2022-11-03T05:52:13;50.67;;;16.80;;
66179;SDS011;52986;44.028;20.466;2022-11-03T05:54:45;46.67;;;16.48;;
66179;SDS011;52986;44.028;20.466;2022-11-03T05:57:14;41.50;;;16.15;;
66179;SDS011;52986;44.028;20.466;2022-11-03T05:59:41;45.72;;;15.85;;
66179;SDS011;52986;44.028;20.466;2022-11-03T06:02:17;67.20;;;16.88;;
66179;SDS011;52986;44.028;20.466;2022-11-03T06:04:47;44.17;;;16.70;;
66179;SDS011;52986;44.028;20.466;2022-11-03T06:07:22;51.33;;;18.33;;
66179;SDS011;52986;44.028;20.466;2022-11-03T06:09:51;42.25;;;16.92;;
66179;SDS011;52986;44.028;20.466;2022-11-03T06:12:17;44.65;;;17.48;;
66179;SDS011;52986;44.028;20.466;2022-11-03T06:14:44;45.80;;;16.80;;
66179;SDS011;52986;44.028;20.466;2022-11-03T06:17:26;47.53;;;18.50;;
66179;SDS011;52986;44.028;20.466;2022-11-03T06:19:53;46.58;;;17.13;;
66179;SDS011;52986;44.028;20.466;2022-11-03T06:22:33;54.78;;;18.35;;
66179;SDS011;52986;44.028;20.466;2022-11-03T06:25:11;45.08;;;17.40;;
66179;SDS011;52986;44.028;20.466;2022-11-03T06:27:37;43.35;;;16.80;;
66179;SDS011;52986;44.028;20.466;2022-11-03T06:30:25;51.30;;;17.23;;
66179;SDS011;52986;44.028;20.466;2022-11-03T06:33:18;46.85;;;17.73;;
66179;SDS011;52986;44.028;20.466;2022-11-03T06:35:47;41.45;;;17.25;;
66179;SDS011;52986;44.028;20.466;2022-11-03T06:38:17;44.42;;;16.90;;
66179;SDS011;52986;44.028;20.466;2022-11-03T06:40:44;46.58;;;17.77;;
66179;SDS011;52986;44.028;20.466;2022-11-03T06:43:37;49.90;;;18.48;;
66179;SDS011;52986;44.028;20.466;2022-11-03T06:46:22;53.33;;;18.75;;
66179;SDS011;52986;44.028;20.466;2022-11-03T06:48:53;49.35;;;18.40;;
66179;SDS011;52986;44.028;20.466;2022-11-03T06:51:22;50.80;;;17.35;;
66179;SDS011;52986;44.028;20.466;2022-11-03T06:53:50;51.15;;;19.65;;
66179;SDS011;52986;44.028;20.466;2022-11-03T06:56:20;59.50;;;19.27;;
66179;SDS011;52986;44.028;20.466;2022-11-03T06:58:47;47.88;;;18.80;;
66179;SDS011;52986;44.028;20.466;2022-11-03T07:01:23;51.83;;;20.15;;
66179;SDS011;52986;44.028;20.466;2022-11-03T07:03:57;52.53;;;18.70;;
66179;SDS011;52986;44.028;20.466;2022-11-03T07:06:28;47.25;;;18.35;;
66179;SDS011;52986;44.028;20.466;2022-11-03T07:08:57;52.78;;;18.77;;
66179;SDS011;52986;44.028;20.466;2022-11-03T07:11:27;54.20;;;21.00;;
66179;SDS011;52986;44.028;20.466;2022-11-03T07:13:56;51.03;;;19.25;;
66179;SDS011;52986;44.028;20.466;2022-11-03T07:16:31;48.58;;;18.33;;
66179;SDS011;52986;44.028;20.466;2022-11-03T07:18:59;53.70;;;20.15;;
66179;SDS011;52986;44.028;20.466;2022-11-03T07:21:35;60.50;;;20.48;;
66179;SDS011;52986;44.028;20.466;2022-11-03T07:29:32;55.28;;;20.98;;
66179;SDS011;52986;44.028;20.466;2022-11-03T07:31:58;52.40;;;19.35;;
66179;SDS011;52986;44.028;20.466;2022-11-03T07:34:25;53.30;;;20.95;;
66179;SDS011;52986;44.028;20.466;2022-11-03T07:36:56;53.28;;;19.90;;
66179;SDS011;52986;44.028;20.466;2022-11-03T07:39:22;51.97;;;19.70;;
66179;SDS011;52986;44.028;20.466;2022-11-03T07:41:47;50.22;;;19.70;;
66179;SDS011;52986;44.028;20.466;2022-11-03T07:44:18;49.55;;;19.42;;
66179;SDS011;52986;44.028;20.466;2022-11-03T07:46:48;48.08;;;18.90;;
66179;SDS011;52986;44.028;20.466;2022-11-03T07:49:27;49.55;;;18.77;;
66179;SDS011;52986;44.028;20.466;2022-11-03T07:51:54;49.83;;;18.52;;
66179;SDS011;52986;44.028;20.466;2022-11-03T07:54:22;43.42;;;17.08;;
66179;SDS011;52986;44.028;20.466;2022-11-03T07:57:02;44.55;;;18.52;;
66179;SDS011;52986;44.028;20.466;2022-11-03T07:59:43;44.55;;;18.15;;
66179;SDS011;52986;44.028;20.466;2022-11-03T08:02:22;47.88;;;18.17;;
66179;SDS011;52986;44.028;20.466;2022-11-03T08:04:50;46.00;;;18.30;;
66179;SDS011;52986;44.028;20.466;2022-11-03T08:07:15;47.25;;;20.00;;
66179;SDS011;52986;44.028;20.466;2022-11-03T08:09:41;46.28;;;18.60;;
66179;SDS011;52986;44.028;20.466;2022-11-03T08:12:06;47.40;;;19.08;;
66179;SDS011;52986;44.028;20.466;2022-11-03T08:14:32;42.65;;;18.23;;
66179;SDS011;52986;44.028;20.466;2022-11-03T08:16:57;45.90;;;18.88;;
66179;SDS011;52986;44.028;20.466;2022-11-03T08:19:23;41.60;;;17.70;;
66179;SDS011;52986;44.028;20.466;2022-11-03T08:21:48;44.25;;;18.42;;
66179;SDS011;52986;44.028;20.466;2022-11-03T08:24:14;48.63;;;19.20;;
66179;SDS011;52986;44.028;20.466;2022-11-03T08:26:39;42.45;;;18.65;;
66179;SDS011;52986;44.028;20.466;2022-11-03T08:29:04;42.67;;;18.35;;
66179;SDS011;52986;44.028;20.466;2022-11-03T08:31:30;43.00;;;18.65;;
66179;SDS011;52986;44.028;20.466;2022-11-03T08:33:55;43.43;;;18.87;;
66179;SDS011;52986;44.028;20.466;2022-11-03T08:36:20;44.10;;;18.63;;
66179;SDS011;52986;44.028;20.466;2022-11-03T08:38:46;48.25;;;19.65;;
66179;SDS011;52986;44.028;20.466;2022-11-03T08:41:11;46.35;;;19.48;;
66179;SDS011;52986;44.028;20.466;2022-11-03T08:43:37;48.53;;;20.27;;
66179;SDS011;52986;44.028;20.466;2022-11-03T08:46:02;44.53;;;19.75;;
66179;SDS011;52986;44.028;20.466;2022-11-03T08:48:27;47.05;;;19.20;;
66179;SDS011;52986;44.028;20.466;2022-11-03T08:50:53;45.30;;;19.67;;
66179;SDS011;52986;44.028;20.466;2022-11-03T08:53:20;44.90;;;19.85;;
66179;SDS011;52986;44.028;20.466;2022-11-03T08:55:46;48.78;;;20.77;;
66179;SDS011;52986;44.028;20.466;2022-11-03T08:58:12;44.67;;;19.37;;
66179;SDS011;52986;44.028;20.466;2022-11-03T09:00:37;41.72;;;19.77;;
66179;SDS011;52986;44.028;20.466;2022-11-03T09:03:03;43.95;;;20.02;;
66179;SDS011;52986;44.028;20.466;2022-11-03T09:05:28;45.10;;;20.60;;
66179;SDS011;52986;44.028;20.466;2022-11-03T09:07:54;47.92;;;21.52;;
66179;SDS011;52986;44.028;20.466;2022-11-03T09:10:19;44.35;;;20.17;;
66179;SDS011;52986;44.028;20.466;2022-11-03T09:12:45;48.05;;;21.45;;
66179;SDS011;52986;44.028;20.466;2022-11-03T09:15:10;43.65;;;20.88;;
66179;SDS011;52986;44.028;20.466;2022-11-03T09:17:36;40.47;;;20.25;;
66179;SDS011;52986;44.028;20.466;2022-11-03T09:20:01;41.38;;;19.65;;
66179;SDS011;52986;44.028;20.466;2022-11-03T09:22:28;43.90;;;20.90;;
66179;SDS011;52986;44.028;20.466;2022-11-03T09:24:53;39.45;;;19.95;;
66179;SDS011;52986;44.028;20.466;2022-11-03T09:27:18;44.07;;;21.20;;
66179;SDS011;52986;44.028;20.466;2022-11-03T09:29:44;40.72;;;19.95;;
66179;SDS011;52986;44.028;20.466;2022-11-03T09:32:09;45.58;;;20.33;;
66179;SDS011;52986;44.028;20.466;2022-11-03T09:34:35;40.58;;;20.98;;
66179;SDS011;52986;44.028;20.466;2022-11-03T09:37:00;39.05;;;19.65;;
66179;SDS011;52986;44.028;20.466;2022-11-03T09:39:25;40.60;;;21.05;;
66179;SDS011;52986;44.028;20.466;2022-11-03T09:41:51;40.03;;;21.10;;
66179;SDS011;52986;44.028;20.466;2022-11-03T09:44:17;39.92;;;19.55;;
66179;SDS011;52986;44.028;20.466;2022-11-03T09:46:43;38.55;;;19.83;;
66179;SDS011;52986;44.028;20.466;2022-11-03T09:49:15;40.63;;;19.88;;
66179;SDS011;52986;44.028;20.466;2022-11-03T09:51:42;37.53;;;19.48;;
66179;SDS011;52986;44.028;20.466;2022-11-03T09:54:12;37.38;;;19.33;;
66179;SDS011;52986;44.028;20.466;2022-11-03T09:56:40;34.47;;;18.38;;
66179;SDS011;52986;44.028;20.466;2022-11-03T09:59:16;34.88;;;19.38;;
66179;SDS011;52986;44.028;20.466;2022-11-03T10:01:47;36.10;;;18.48;;
66179;SDS011;52986;44.028;20.466;2022-11-03T10:04:15;33.25;;;18.10;;
66179;SDS011;52986;44.028;20.466;2022-11-03T10:06:43;36.78;;;18.85;;
66179;SDS011;52986;44.028;20.466;2022-11-03T10:09:11;36.33;;;17.67;;
66179;SDS011;52986;44.028;20.466;2022-11-03T10:11:39;29.00;;;16.70;;
66179;SDS011;52986;44.028;20.466;2022-11-03T10:14:06;27.88;;;15.77;;
66179;SDS011;52986;44.028;20.466;2022-11-03T10:16:37;30.83;;;16.40;;
66179;SDS011;52986;44.028;20.466;2022-11-03T10:19:04;32.10;;;16.77;;
66179;SDS011;52986;44.028;20.466;2022-11-03T10:21:32;27.02;;;15.40;;
66179;SDS011;52986;44.028;20.466;2022-11-03T10:23:58;30.52;;;15.80;;
66179;SDS011;52986;44.028;20.466;2022-11-03T10:26:24;29.20;;;15.77;;
66179;SDS011;52986;44.028;20.466;2022-11-03T10:28:56;29.80;;;15.43;;
66179;SDS011;52986;44.028;20.466;2022-11-03T10:31:30;30.23;;;15.35;;
66179;SDS011;52986;44.028;20.466;2022-11-03T10:33:57;27.92;;;14.45;;
66179;SDS011;52986;44.028;20.466;2022-11-03T10:36:26;27.35;;;15.00;;
66179;SDS011;52986;44.028;20.466;2022-11-03T10:38:54;24.10;;;12.55;;
66179;SDS011;52986;44.028;20.466;2022-11-03T10:41:20;26.70;;;12.98;;
66179;SDS011;52986;44.028;20.466;2022-11-03T10:46:34;28.48;;;14.90;;
66179;SDS011;52986;44.028;20.466;2022-11-03T10:51:36;25.60;;;12.95;;
66179;SDS011;52986;44.028;20.466;2022-11-03T10:54:03;27.67;;;14.75;;
66179;SDS011;52986;44.028;20.466;2022-11-03T10:56:30;27.50;;;14.15;;
66179;SDS011;52986;44.028;20.466;2022-11-03T10:58:56;25.85;;;13.90;;
66179;SDS011;52986;44.028;20.466;2022-11-03T11:01:24;28.67;;;14.65;;
66179;SDS011;52986;44.028;20.466;2022-11-03T11:03:49;25.77;;;13.88;;
66179;SDS011;52986;44.028;20.466;2022-11-03T11:06:19;25.15;;;13.95;;
66179;SDS011;52986;44.028;20.466;2022-11-03T11:08:47;25.70;;;13.93;;
66179;SDS011;52986;44.028;20.466;2022-11-03T11:11:17;27.38;;;13.88;;
66179;SDS011;52986;44.028;20.466;2022-11-03T11:13:43;26.45;;;13.98;;
66179;SDS011;52986;44.028;20.466;2022-11-03T11:19:11;27.50;;;13.73;;
66179;SDS011;52986;44.028;20.466;2022-11-03T11:24:02;27.97;;;13.57;;
66179;SDS011;52986;44.028;20.466;2022-11-03T11:31:34;23.23;;;11.80;;
66179;SDS011;52986;44.028;20.466;2022-11-03T11:36:36;22.10;;;11.60;;
66179;SDS011;52986;44.028;20.466;2022-11-03T11:39:06;27.77;;;12.18;;
66179;SDS011;52986;44.028;20.466;2022-11-03T11:47:41;16.48;;;7.05;;
66179;SDS011;52986;44.028;20.466;2022-11-03T11:52:56;15.93;;;7.40;;
66179;SDS011;52986;44.028;20.466;2022-11-03T11:55:38;12.60;;;6.78;;
66179;SDS011;52986;44.028;20.466;2022-11-03T11:58:13;17.17;;;6.65;;
66179;SDS011;52986;44.028;20.466;2022-11-03T12:01:43;18.92;;;9.52;;
66179;SDS011;52986;44.028;20.466;2022-11-03T12:03:58;10.73;;;4.95;;
66179;SDS011;52986;44.028;20.466;2022-11-03T12:09:07;14.27;;;5.82;;
66179;SDS011;52986;44.028;20.466;2022-11-03T12:11:45;14.05;;;6.13;;
66179;SDS011;52986;44.028;20.466;2022-11-03T12:16:50;12.23;;;5.70;;
66179;SDS011;52986;44.028;20.466;2022-11-03T12:22:08;12.20;;;5.65;;
66179;SDS011;52986;44.028;20.466;2022-11-03T12:24:46;13.52;;;5.70;;
66179;SDS011;52986;44.028;20.466;2022-11-03T12:30:12;11.45;;;5.40;;
66179;SDS011;52986;44.028;20.466;2022-11-03T12:32:39;11.68;;;4.82;;
66179;SDS011;52986;44.028;20.466;2022-11-03T12:35:05;10.27;;;4.32;;
66179;SDS011;52986;44.028;20.466;2022-11-03T12:37:32;12.43;;;4.70;;
66179;SDS011;52986;44.028;20.466;2022-11-03T12:39:58;11.15;;;4.70;;
66179;SDS011;52986;44.028;20.466;2022-11-03T12:42:23;9.90;;;4.05;;
66179;SDS011;52986;44.028;20.466;2022-11-03T12:44:49;9.68;;;4.00;;
66179;SDS011;52986;44.028;20.466;2022-11-03T12:47:15;9.55;;;3.42;;
66179;SDS011;52986;44.028;20.466;2022-11-03T12:49:40;11.05;;;4.20;;
66179;SDS011;52986;44.028;20.466;2022-11-03T12:52:05;11.90;;;5.17;;
66179;SDS011;52986;44.028;20.466;2022-11-03T12:54:32;25.48;;;12.30;;
66179;SDS011;52986;44.028;20.466;2022-11-03T12:56:58;16.45;;;6.70;;
66179;SDS011;52986;44.028;20.466;2022-11-03T12:59:23;10.70;;;4.53;;
66179;SDS011;52986;44.028;20.466;2022-11-03T13:01:49;9.30;;;3.63;;
66179;SDS011;52986;44.028;20.466;2022-11-03T13:04:14;8.93;;;3.03;;
66179;SDS011;52986;44.028;20.466;2022-11-03T13:06:40;8.25;;;2.88;;
66179;SDS011;52986;44.028;20.466;2022-11-03T13:09:05;6.72;;;2.45;;
66179;SDS011;52986;44.028;20.466;2022-11-03T13:11:30;10.32;;;2.80;;
66179;SDS011;52986;44.028;20.466;2022-11-03T13:14:14;17.88;;;8.02;;
66179;SDS011;52986;44.028;20.466;2022-11-03T13:16:40;31.75;;;14.93;;
66179;SDS011;52986;44.028;20.466;2022-11-03T13:19:05;35.13;;;17.23;;
66179;SDS011;52986;44.028;20.466;2022-11-03T13:21:30;20.63;;;8.00;;
66179;SDS011;52986;44.028;20.466;2022-11-03T13:23:56;11.20;;;3.97;;
66179;SDS011;52986;44.028;20.466;2022-11-03T13:26:21;14.25;;;6.03;;
66179;SDS011;52986;44.028;20.466;2022-11-03T13:28:47;17.25;;;7.13;;
66179;SDS011;52986;44.028;20.466;2022-11-03T13:31:12;16.60;;;7.10;;
66179;SDS011;52986;44.028;20.466;2022-11-03T13:33:37;21.67;;;7.72;;
66179;SDS011;52986;44.028;20.466;2022-11-03T13:36:03;17.75;;;7.20;;
66179;SDS011;52986;44.028;20.466;2022-11-03T13:38:29;19.25;;;6.30;;
66179;SDS011;52986;44.028;20.466;2022-11-03T13:40:54;14.40;;;5.82;;
66179;SDS011;52986;44.028;20.466;2022-11-03T13:43:19;32.08;;;16.35;;
66179;SDS011;52986;44.028;20.466;2022-11-03T13:45:45;36.88;;;17.75;;
66179;SDS011;52986;44.028;20.466;2022-11-03T13:48:11;20.52;;;9.98;;
66179;SDS011;52986;44.028;20.466;2022-11-03T13:50:37;46.25;;;21.25;;
66179;SDS011;52986;44.028;20.466;2022-11-03T13:53:02;43.55;;;20.60;;
66179;SDS011;52986;44.028;20.466;2022-11-03T13:55:28;43.53;;;21.50;;
66179;SDS011;52986;44.028;20.466;2022-11-03T13:57:53;39.72;;;20.58;;
66179;SDS011;52986;44.028;20.466;2022-11-03T14:00:19;39.83;;;19.42;;
66179;SDS011;52986;44.028;20.466;2022-11-03T14:02:44;35.13;;;18.10;;
66179;SDS011;52986;44.028;20.466;2022-11-03T14:05:10;38.42;;;17.70;;
66179;SDS011;52986;44.028;20.466;2022-11-03T14:07:35;37.60;;;18.25;;
66179;SDS011;52986;44.028;20.466;2022-11-03T14:10:01;39.10;;;18.25;;
66179;SDS011;52986;44.028;20.466;2022-11-03T14:12:26;36.80;;;18.45;;
66179;SDS011;52986;44.028;20.466;2022-11-03T14:14:58;45.70;;;21.50;;
66179;SDS011;52986;44.028;20.466;2022-11-03T14:17:34;43.55;;;22.23;;
66179;SDS011;52986;44.028;20.466;2022-11-03T14:20:00;48.53;;;21.63;;
66179;SDS011;52986;44.028;20.466;2022-11-03T14:22:27;49.03;;;23.88;;
66179;SDS011;52986;44.028;20.466;2022-11-03T14:24:54;44.67;;;23.45;;
66179;SDS011;52986;44.028;20.466;2022-11-03T14:27:20;50.83;;;23.38;;
66179;SDS011;52986;44.028;20.466;2022-11-03T14:29:45;48.35;;;23.92;;
66179;SDS011;52986;44.028;20.466;2022-11-03T14:32:13;51.67;;;24.17;;
66179;SDS011;52986;44.028;20.466;2022-11-03T14:34:39;51.70;;;24.80;;
66179;SDS011;52986;44.028;20.466;2022-11-03T14:37:05;49.83;;;24.98;;
66179;SDS011;52986;44.028;20.466;2022-11-03T14:39:32;50.33;;;24.83;;
66179;SDS011;52986;44.028;20.466;2022-11-03T14:41:58;49.95;;;22.95;;
66179;SDS011;52986;44.028;20.466;2022-11-03T14:44:30;49.35;;;23.50;;
66179;SDS011;52986;44.028;20.466;2022-11-03T14:46:55;47.20;;;23.88;;
66179;SDS011;52986;44.028;20.466;2022-11-03T14:49:21;47.10;;;22.80;;
66179;SDS011;52986;44.028;20.466;2022-11-03T14:51:46;49.60;;;22.50;;
66179;SDS011;52986;44.028;20.466;2022-11-03T14:54:12;44.58;;;22.50;;
66179;SDS011;52986;44.028;20.466;2022-11-03T14:56:37;46.10;;;23.60;;
66179;SDS011;52986;44.028;20.466;2022-11-03T14:59:02;49.78;;;24.05;;
66179;SDS011;52986;44.028;20.466;2022-11-03T15:01:28;46.50;;;23.58;;
66179;SDS011;52986;44.028;20.466;2022-11-03T15:03:53;51.08;;;24.15;;
66179;SDS011;52986;44.028;20.466;2022-11-03T15:06:19;51.45;;;23.65;;
66179;SDS011;52986;44.028;20.466;2022-11-03T15:08:44;48.85;;;23.35;;
66179;SDS011;52986;44.028;20.466;2022-11-03T15:11:10;49.53;;;23.17;;
66179;SDS011;52986;44.028;20.466;2022-11-03T15:13:35;48.97;;;24.95;;
66179;SDS011;52986;44.028;20.466;2022-11-03T15:16:02;49.17;;;24.02;;
66179;SDS011;52986;44.028;20.466;2022-11-03T15:18:29;50.88;;;24.77;;
66179;SDS011;52986;44.028;20.466;2022-11-03T15:20:54;55.22;;;26.40;;
66179;SDS011;52986;44.028;20.466;2022-11-03T15:23:20;53.80;;;26.73;;
66179;SDS011;52986;44.028;20.466;2022-11-03T15:25:45;59.17;;;31.60;;
66179;SDS011;52986;44.028;20.466;2022-11-03T15:28:11;59.50;;;28.38;;
66179;SDS011;52986;44.028;20.466;2022-11-03T15:30:36;66.00;;;28.88;;
66179;SDS011;52986;44.028;20.466;2022-11-03T15:33:02;65.63;;;31.27;;